Bracebridge, Canada
Current Conditions -  °F | °C
As of 8:00 PM on Thursday 27 Nov 2014 (Local Time) from CYQA Reporting Station
Overcast Overcast  
Wind Chill: -11°   Ceiling: 1900
Heat Index: -6°   Visibility: 9mi
Dew Point: -8°   Wind: 8mph
Humidity: 86%   Direction: 320°NW
Pressure: 30.08"   Gusts: NA
Location:  45.05°N, 79.32°W
Report Text: CYQA 280100Z AUTO 32007KT 9SM BKN019 OVC140 M06/M08 A3008 RMK SLP203
Loading
Personal Weather Stations






























Interactive Weather Map New forecast layout! Learn more

10-Day Weather Forecast

Advertisements
Track Severe Weather on mobile